Tiempo atmosférico en la estación meteorológica de Bañobárez, Salamanca (748 m.)



Fecha
DESCASC
Temp. máxima en grados centígrados (hora)
DESCASC
Temp. mínima en grados centígrados (hora)
DESCASC
Temp. media en grados centígrados
DESCASC
Racha de viento máxima en m/sg (hora)
DESCASC
Velocidad máxima media en intervalos de 10 minutos(hora)
DESCASC
Precipitaciones diarias en mm
DESCASC
Precipitaciones de 00:00 a 06:00 en mm
DESCASC
Precipitaciones de 06:00 a 12:00 en mm
DESCASC
Precipitaciones de 12:00 a 18:00 en mm
DESCASC
Precipitaciones de 18:00 a 24:00 en mm
DESCASC
25-04-2019 9.9 (15:00) 2.5 (08:50) 6.2 18.33 (16:10) 9.72 (19:00) 6.2 0.6 4.6 1 0
24-04-2019 11.6 (14:20) 2.9 (01:00) 7.3 17.5 (12:00) 9.72 (14:40) 13.4 2.6 4.4 5.6 0.8
23-04-2019 10.8 (00:10) 3.3 (08:10) 7.1 15.83 (01:30) 8.89 (01:30) 5.4 4.4 0 1 0
22-04-2019 17.5 (15:50) 4.7 (00:00) 11.1 9.17 (17:50) 6.11 (16:30) 0.2 0 0 0 0.2
21-04-2019 17 (18:20) 6.9 (00:00) 12 12.5 (15:30) 6.94 (16:10) 0 0 0 0 0
20-04-2019 20.2 (17:40) 7.5 (00:00) 13.9 12.22 (11:00) 7.5 (16:30) 0 0 0 0 0
19-04-2019 15.4 (18:00) 7.5 (00:00) 11.4 11.11 (20:00) 6.39 (15:20) 8.4 6 2 0.4 0
18-04-2019 14.5 (18:10) 6.4 (00:00) 10.5 6.67 (16:20) 4.44 (19:30) 6 0.8 0.4 0.6 4.2
17-04-2019 16.9 (15:40) 8.5 (00:00) 12.7 16.67 (16:30) 9.17 (14:50) 10 0 0 0.8 9.2
16-04-2019 17.4 (17:50) 1.4 (00:00) 9.4 9.44 (14:10) 5.28 (14:30) 0 0 0 0 0
15-04-2019 17 (13:30) 7.2 (00:00) 12.1 14.72 (13:40) 9.44 (13:40) 2.8 0 0 2.8 0
14-04-2019 18.8 (19:40) 11 (00:00) 14.9 6.39 (00:10) 4.17 (00:10) 0 0 0 0 0
13-04-2019 19.4 (16:50) 5.2 (00:00) 12.3 8.33 (18:20) 5.56 (18:20) 0 0 0 0 0
12-04-2019 16.4 (19:10) 0.9 (00:00) 8.6 5.83 (15:20) 2.5 (15:20) 0 0 0 0 0
11-04-2019 13.8 (17:50) -0.6 (-00:0) 6.6 6.39 (16:20) 3.89 (18:10) 0 0 0 0 0
10-04-2019 13.2 (17:50) 4.5 (00:00) 8.8 11.11 (17:30) 6.94 (17:40) 0.6 0.2 0.4 0 0
09-04-2019 10.9 (17:50) 3.9 (00:00) 7.4 11.94 (17:10) 8.33 (15:30) 7.8 0.4 7 0 0.4
08-04-2019 12.2 (15:10) 6.3 (00:00) 9.3 11.11 (04:00) 7.5 (15:50) 4 2.4 0.2 1.4 0
07-04-2019 9.2 (14:20) 2.9 (00:00) 6 8.89 (20:20) 5 (15:50) 3.6 0 0 2.6 1
06-04-2019 8.5 (17:10) 1.7 (00:00) 5.1 14.44 (12:50) 9.44 (17:30) 6 0.8 3.6 1.2 0.4
05-04-2019 8.3 (16:30) 1.6 (00:00) 5 15.83 (17:00) 8.89 (17:10) 7 3.2 1.8 1.2 0.8
04-04-2019 10.7 (16:00) -3.5 (-00:0) 3.6 10.28 (16:10) 5.83 (16:20) 2.2 0 0 0 2.2
03-04-2019 11 (17:30) 2.8 (23:50) 6.9 12.5 (18:50) 7.5 (18:50) 0 0 0 0 0
02-04-2019 16.7 (17:00) 6.5 (00:00) 11.6 9.44 (16:10) 5 (17:30) 0 0 0 0 0
01-04-2019 17.2 (17:10) 3.9 (00:00) 10.6 10.56 (17:30) 6.39 (17:40) 0.4 0 0 0 0.4
31-03-2019 18.4 (16:00) 2.4 (00:00) 10.4 6.67 (16:00) 4.17 (17:30) 0 0 0 0 0
30-03-2019 18.5 (17:10) 2.5 (00:00) 10.5 6.39 (11:00) 3.33 (09:10) 0 0 0 0 0
29-03-2019 18.4 (17:50) -0.4 (00:00) 9 5.56 (14:10) 2.78 (11:40) 0 0 0 0 0
28-03-2019 17 (17:20) 2.1 (00:00) 9.5 8.89 (09:10) 5.56 (08:50) 0 0 0 0 0
27-03-2019 17 (17:30) -3.2 (-00:0) 6.9 10 (00:50) 6.39 (01:20) 0 0 0 0 0

Gráficas

Temp. máximas Temp. mínimas Temp. medias Precipitaciones Rachas de viento máximas Velocidades máximas media en intervalos de 10 minutos

Datos horarios

Fecha y hora oficial Temperatura (ºC) Velocidad del viento (km/h) Dirección del viento Racha (km/h) Dirección de racha Precipitación (mm) Presión (hPa) Tendencia (hPa) Humedad (%)
2019-04-25 23:00:00 6.6 15 Oeste 31 Oeste 0 -- -- 90
2019-04-25 22:00:00 5.9 14 Sudoeste 27 Sudoeste 0 -- -- 91
2019-04-25 21:00:00 6.2 18 Sudoeste 39 Oeste 0 -- -- 88
2019-04-25 20:00:00 6.6 21 Oeste 51 Oeste 0 -- -- 83
2019-04-25 19:00:00 9 35 Oeste 55 Oeste 0 -- -- 71
2019-04-25 18:00:00 9.4 30 Oeste 51 Oeste 0 -- -- 74
2019-04-25 17:00:00 9.2 27 Oeste 66 Oeste 0.2 -- -- 77
2019-04-25 16:00:00 8.7 21 Oeste 63 Oeste 0.6 -- -- 79
2019-04-25 15:00:00 9.9 29 Oeste 49 Sudoeste 0 -- -- 67
2019-04-25 14:00:00 6.9 24 Oeste 49 Sudoeste 0.2 -- -- 80
2019-04-25 13:00:00 7.5 28 Sudoeste 51 Oeste 0 -- -- 76
2019-04-25 12:00:00 7.7 31 Oeste 49 Oeste 0 -- -- 77
2019-04-25 11:00:00 6.1 19 Sudoeste 33 Sudoeste 0 -- -- 88
2019-04-25 10:00:00 3.4 15 Sudoeste 31 Sudoeste 0 -- -- 94
2019-04-25 09:00:00 2.8 14 Sudoeste 27 Sudoeste 3 -- -- 94
2019-04-25 08:00:00 3.3 13 Sudoeste 34 Oeste 1.6 -- -- 91
2019-04-25 07:00:00 3.9 15 Sudoeste 25 Sudoeste 0 -- -- 86
2019-04-25 06:00:00 4.5 14 Sudoeste 29 Sudoeste 0 -- -- 88
2019-04-25 05:00:00 5 15 Sudoeste 35 Sudoeste 0 -- -- 89
2019-04-25 04:00:00 5.3 15 Sudoeste 32 Sudoeste 0.4 -- -- 90
2019-04-25 03:00:00 5.7 14 Oeste 37 Sudoeste 0 -- -- 88
2019-04-25 02:00:00 5.5 18 Oeste 40 Oeste 0.2 -- -- 84
2019-04-25 01:00:00 6.1 12 Sudoeste 30 Sudoeste 0 -- -- 87
2019-04-25 00:00:00 6.5 17 Oeste 39 Oeste 0 -- -- 89
2019-04-24 23:00:00 7.4 14 Sudoeste 37 Sudoeste 0.2 -- -- 91
2019-04-24 22:00:00 7.5 19 Sudoeste 48 Oeste 0 -- -- 85
2019-04-24 21:00:00 8.5 30 Oeste 52 Oeste 0.6 -- -- 86
2019-04-24 20:00:00 9.5 25 Sudoeste 46 Sudoeste 0 -- -- 84
2019-04-24 19:00:00 10.2 11 Oeste 28 Oeste 0 -- -- 82
2019-04-24 18:00:00 8.9 25 Oeste 60 Oeste 1.2 -- -- 85
2019-04-24 17:00:00 10.6 25 Sudoeste 42 Sudoeste 0 -- -- 79
2019-04-24 16:00:00 9 21 Sudoeste 53 Sudoeste 2.2 -- -- 90
2019-04-24 15:00:00 10.3 28 Sudoeste 63 Sudoeste 0.2 -- -- 85
2019-04-24 14:00:00 11.3 28 Sudoeste 49 Sudoeste 0 -- -- 76
2019-04-24 13:00:00 10 26 Sudoeste 60 Sudoeste 2 -- -- 90
2019-04-24 12:00:00 10.4 30 Sudoeste 63 Sudoeste 0 -- -- 83
2019-04-24 11:00:00 8.4 18 Sudoeste 35 Sudoeste 0 -- -- 94
2019-04-24 10:00:00 6.6 22 Sur 40 Sur 0.6 -- -- 94
2019-04-24 09:00:00 5.7 24 Sur 42 Sur 0.6 -- -- 94
2019-04-24 08:00:00 4.4 22 Sur 42 Sur 1.8 -- -- 95
2019-04-24 07:00:00 3.3 25 Sur 47 Sur 1.4 -- -- 93
2019-04-24 06:00:00 3.7 21 Sur 41 Sur 1.6 -- -- 93
2019-04-24 05:00:00 3.9 14 Sur 31 Sur 0.2 -- -- 92
2019-04-24 04:00:00 4 15 Sur 28 Sur 0.8 -- -- 92
2019-04-24 03:00:00 3.9 15 Sur 26 Sur 0 -- -- 89
2019-04-24 02:00:00 3.5 10 Sur 21 Sudoeste 0 -- -- 91
2019-04-24 01:00:00 2.9 8 Sur 17 Oeste 0 -- -- 89
2019-04-24 00:00:00 4.3 11 Sudoeste 23 Sudoeste 0 -- -- 85
2019-04-23 23:00:00 4.6 11 Sudoeste 27 Oeste 0 -- -- 83
2019-04-23 22:00:00 4.4 14 Sudoeste 25 Oeste 0 -- -- 83
2019-04-23 21:00:00 5.5 13 Sudoeste 30 Oeste 0 -- -- 80
2019-04-23 20:00:00 6.7 12 Sudoeste 34 Oeste 0 -- -- 72
2019-04-23 19:00:00 7.7 19 Oeste 42 Oeste 0 -- -- 72
2019-04-23 18:00:00 8.3 25 Oeste 44 Oeste 0 -- -- 72
2019-04-23 17:00:00 7.4 25 Oeste 41 Oeste 0.2 -- -- 83
2019-04-23 16:00:00 8.9 20 Oeste 35 Noroeste 0 -- -- 69
2019-04-23 15:00:00 8.5 21 Oeste 35 Oeste 0 -- -- 73
2019-04-23 14:00:00 7.5 22 Sudoeste 36 Sudoeste 0.8 -- -- 84
2019-04-23 13:00:00 7.3 13 Oeste 32 Oeste 0 -- -- 78
2019-04-23 12:00:00 8.1 14 Sudoeste 25 Sudoeste 0 -- -- 74
2019-04-23 11:00:00 6.1 13 Sudoeste 26 Sudoeste 0 -- -- 80
2019-04-23 10:00:00 5.3 12 Sudoeste 25 Sudoeste 0 -- -- 86
2019-04-23 09:00:00 4.5 12 Sudoeste 19 Sudoeste 0 -- -- 90
2019-04-23 08:00:00 3.5 8 Sudoeste 14 Oeste 0 -- -- 90
2019-04-23 07:00:00 4.2 5 Sudoeste 16 Sudoeste 0 -- -- 91
2019-04-23 06:00:00 5.3 10 Sudoeste 26 Oeste 0 -- -- 91
2019-04-23 05:00:00 5.7 8 Sudoeste 13 Oeste 0.6 -- -- 92
2019-04-23 04:00:00 5.6 5 Sur 17 Oeste 1.8 -- -- 91
2019-04-23 03:00:00 5.7 8 Oeste 23 Oeste 1.2 -- -- 91
2019-04-23 02:00:00 6.3 18 Oeste 57 Oeste 0.6 -- -- 88
2019-04-23 01:00:00 10.1 14 Sudoeste 37 Sudoeste 0.2 -- -- 78
2019-04-23 00:00:00 10.6 11 Sur 19 Sur 0 -- -- 73
2019-04-22 23:00:00 11 9 Sur 19 Sudoeste 0 -- -- 72
2019-04-22 22:00:00 11.3 10 Oeste 19 Oeste 0.2 -- -- 78
2019-04-22 21:00:00 12.5 15 Oeste 26 Sudoeste 0 -- -- 72
2019-04-22 20:00:00 13.5 17 Oeste 26 Oeste 0 -- -- 67
2019-04-22 19:00:00 13.1 10 Sur 32 Sur 0 -- -- 73
2019-04-22 18:00:00 16.1 18 Oeste 33 Sudoeste 0 -- -- 56
2019-04-22 17:00:00 17 19 Sudoeste 32 Sudoeste 0 -- -- 52
2019-04-22 16:00:00 17 15 Sudoeste 31 Sur 0 -- -- 49
2019-04-22 15:00:00 16.4 12 Sudoeste 27 Sudoeste 0 -- -- 56
2019-04-22 14:00:00 15.4 12 Sudoeste 23 Oeste 0 -- -- 61
2019-04-22 13:00:00 15.1 11 Sudoeste 23 Sudoeste 0 -- -- 61
2019-04-22 12:00:00 13.9 10 Sudoeste 21 Sudoeste 0 -- -- 66
2019-04-22 11:00:00 11.9 7 Sur 12 Sudoeste 0 -- -- 78
2019-04-22 10:00:00 7.7 7 Sur 12 Sur 0 -- -- 88
2019-04-22 09:00:00 6.4 7 Sur 11 Sur 0 -- -- 87
2019-04-22 08:00:00 4.9 8 Este 12 Este 0 -- -- 90
2019-04-22 07:00:00 4.7 6 Este 8 Este 0 -- -- 91
2019-04-22 06:00:00 5.3 3 Sudeste 10 Este 0 -- -- 91
2019-04-22 05:00:00 5.7 5 Este 9 Este 0 -- -- 91
2019-04-22 04:00:00 6.7 5 Este 8 Este 0 -- -- 89
2019-04-22 03:00:00 8.7 2 Este 3 Este 0 -- -- 86
2019-04-22 02:00:00 9.7 2 Este 3 Este 0 -- -- 85
2019-04-22 01:00:00 10.2 0 Calma 4 Este 0 -- -- 82
2019-04-22 00:00:00 11 3 Este 8 Nordeste 0 -- -- 78
2019-04-21 23:00:00 11 3 Nordeste 5 Nordeste 0 -- -- 78
2019-04-21 22:00:00 11.2 2 Nordeste 6 Nordeste 0 -- -- 79
2019-04-21 21:00:00 11.3 4 Norte 22 Noroeste 0 -- -- 77
2019-04-21 20:00:00 12.2 17 Norte 37 Norte 0 -- -- 75
2019-04-21 19:00:00 16.1 16 Este 35 Norte 0 -- -- 46
2019-04-21 18:00:00 16.5 22 Nordeste 37 Norte 0 -- -- 48
2019-04-21 17:00:00 16.1 19 Nordeste 40 Nordeste 0 -- -- 49
2019-04-21 16:00:00 16.3 19 Nordeste 45 Este 0 -- -- 50
2019-04-21 15:00:00 15.6 22 Nordeste 39 Nordeste 0 -- -- 53
2019-04-21 14:00:00 14.6 21 Nordeste 39 Nordeste 0 -- -- 54
2019-04-21 13:00:00 14.2 22 Nordeste 37 Este 0 -- -- 56
2019-04-21 12:00:00 13.5 22 Nordeste 39 Este 0 -- -- 61
2019-04-21 11:00:00 12.2 20 Este 29 Este 0 -- -- 66
2019-04-21 10:00:00 10.3 14 Nordeste 25 Nordeste 0 -- -- 75
2019-04-21 09:00:00 8.2 14 Nordeste 25 Nordeste 0 -- -- 84
2019-04-21 08:00:00 7.1 11 Nordeste 18 Nordeste 0 -- -- 85
2019-04-21 07:00:00 7.1 9 Nordeste 15 Nordeste 0 -- -- 85
2019-04-21 06:00:00 7.2 8 Nordeste 12 Nordeste 0 -- -- 82
2019-04-21 05:00:00 8.5 5 Nordeste 13 Este 0 -- -- 77
2019-04-21 04:00:00 9.7 10 Nordeste 18 Este 0 -- -- 73
2019-04-21 03:00:00 10.2 10 Nordeste 28 Nordeste 0 -- -- 70
2019-04-21 02:00:00 11.3 15 Nordeste 26 Nordeste 0 -- -- 65
2019-04-21 01:00:00 12.9 16 Nordeste 40 Este 0 -- -- 58
2019-04-21 00:00:00 13.6 18 Este 30 Este 0 -- -- 57
2019-04-20 23:00:00 14.3 13 Nordeste 22 Nordeste 0 -- -- 53
2019-04-20 22:00:00 15.6 10 Nordeste 24 Nordeste 0 -- -- 48
2019-04-20 21:00:00 17.2 10 Nordeste 30 Nordeste 0 -- -- 45
2019-04-20 20:00:00 19.1 19 Nordeste 35 Nordeste 0 -- -- 41
2019-04-20 19:00:00 19.9 21 Nordeste 41 Nordeste 0 -- -- 39
2019-04-20 18:00:00 20 24 Nordeste 42 Nordeste 0 -- -- 45
2019-04-20 17:00:00 20.1 24 Nordeste 43 Nordeste 0 -- -- 42
2019-04-20 16:00:00 19.5 24 Nordeste 43 Nordeste 0 -- -- 41
2019-04-20 15:00:00 19.4 22 Nordeste 44 Este 0 -- -- 46
2019-04-20 14:00:00 18.1 20 Nordeste 40 Nordeste 0 -- -- 55
2019-04-20 13:00:00 16.8 22 Nordeste 37 Nordeste 0 -- -- 56
2019-04-20 12:00:00 15.9 22 Nordeste 41 Nordeste 0 -- -- 56
2019-04-20 11:00:00 14.8 24 Este 44 Este 0 -- -- 57
2019-04-20 10:00:00 12.9 12 Nordeste 23 Nordeste 0 -- -- 67
2019-04-20 09:00:00 10.7 10 Este 19 Nordeste 0 -- -- 74
2019-04-20 08:00:00 8.1 7 Nordeste 16 Nordeste 0 -- -- 82
2019-04-20 07:00:00 8.3 5 Nordeste 17 Norte 0 -- -- 84
2019-04-20 06:00:00 10 10 Nordeste 23 Nordeste 0 -- -- 75
2019-04-20 05:00:00 10.9 19 Este 36 Este 0 -- -- 71
2019-04-20 04:00:00 10.8 15 Este 29 Nordeste 0 -- -- 72
2019-04-20 03:00:00 10.9 13 Nordeste 31 Nordeste 0 -- -- 73
2019-04-20 02:00:00 11.3 14 Este 35 Este 0 -- -- 73
2019-04-20 01:00:00 11.6 16 Este 26 Nordeste 0 -- -- 75
2019-04-20 00:00:00 11.9 11 Este 30 Este 0 -- -- 79
2019-04-19 23:00:00 12.5 14 Nordeste 29 Nordeste 0 -- -- 77
2019-04-19 22:00:00 12.3 18 Este 30 Este 0 -- -- 77
2019-04-19 21:00:00 12.5 22 Nordeste 36 Nordeste 0 -- -- 74
2019-04-19 20:00:00 13.8 22 Nordeste 40 Nordeste 0 -- -- 68
2019-04-19 19:00:00 14.4 17 Nordeste 38 Este 0 -- -- 62
2019-04-19 18:00:00 15.4 19 Este 35 Este 0 -- -- 55
2019-04-19 17:00:00 14.8 22 Este 36 Este 0 -- -- 59
2019-04-19 16:00:00 13.9 21 Este 38 Este 0 -- -- 64
2019-04-19 15:00:00 13.8 17 Este 40 Este 0.2 -- -- 65
2019-04-19 14:00:00 12.5 16 Este 28 Nordeste 0.2 -- -- 77
2019-04-19 13:00:00 13 14 Este 28 Este 0 -- -- 72
2019-04-19 12:00:00 11.5 15 Este 26 Este 0 -- -- 77
2019-04-19 11:00:00 10.6 13 Este 25 Este 0 -- -- 83
2019-04-19 10:00:00 9.1 9 Sudeste 14 Sudeste 0 -- -- 94
2019-04-19 09:00:00 8.2 6 Sur 10 Sur 0.2 -- -- 96
2019-04-19 08:00:00 7.7 4 Sur 8 Sudeste 0.8 -- -- 96
2019-04-19 07:00:00 7.6 4 Sudoeste 9 Sudoeste 1 -- -- 96
2019-04-19 06:00:00 7.5 6 Oeste 12 Oeste 1 -- -- 96
2019-04-19 05:00:00 7.7 8 Oeste 14 Oeste 0.6 -- -- 96
2019-04-19 04:00:00 7.8 7 Oeste 12 Oeste 0.4 -- -- 95
2019-04-19 03:00:00 8 6 Oeste 9 Oeste 0.4 -- -- 94
2019-04-19 02:00:00 8 4 Noroeste 9 Norte 1.4 -- -- 94
2019-04-19 01:00:00 8.1 4 Noroeste 6 Noroeste 2.2 -- -- 92
2019-04-19 00:00:00 8.6 3 Este 18 Nordeste 0.8 -- -- 91
2019-04-18 23:00:00 8.3 4 Norte 13 Sur 0.2 -- -- 93
2019-04-18 22:00:00 8.4 11 Sudeste 24 Este 3.2 -- -- 87
2019-04-18 21:00:00 10.5 8 Sur 22 Sudoeste 0 -- -- 84
2019-04-18 20:00:00 12 13 Sudoeste 24 Oeste 0 -- -- 74
2019-04-18 19:00:00 14.1 6 Noroeste 15 Norte 0 -- -- 57
2019-04-18 18:00:00 14.3 6 Nordeste 17 Nordeste 0 -- -- 56
2019-04-18 17:00:00 13.7 9 Nordeste 24 Nordeste 0 -- -- 61
2019-04-18 16:00:00 12.1 12 Nordeste 19 Nordeste 0 -- -- 75
2019-04-18 15:00:00 11.9 12 Nordeste 17 Sudeste 0 -- -- 78
2019-04-18 14:00:00 12.6 10 Sudeste 19 Sudeste 0 -- -- 73
2019-04-18 13:00:00 10.5 10 Sudeste 23 Sudeste 0.6 -- -- 85
2019-04-18 12:00:00 11.1 8 Sudeste 13 Sudeste 0 -- -- 79
2019-04-18 11:00:00 10.9 8 Sudoeste 15 Sudeste 0 -- -- 80
2019-04-18 10:00:00 9.7 10 Sur 15 Sur 0 -- -- 89
2019-04-18 09:00:00 7.7 3 Sur 9 Sudeste 0 -- -- 96
2019-04-18 08:00:00 6.7 4 Sur 11 Sur 0 -- -- 95
2019-04-18 07:00:00 7.5 8 Sur 15 Sur 0.4 -- -- 95
2019-04-18 06:00:00 7.2 5 Sur 11 Sudeste 0.2 -- -- 96
2019-04-18 05:00:00 7.2 5 Sudeste 10 Sur 0 -- -- 96
2019-04-18 04:00:00 7.5 5 Sur 17 Sur 0 -- -- 94
2019-04-18 03:00:00 8.1 11 Sur 18 Sur 0 -- -- 95
2019-04-18 02:00:00 8.2 12 Sur 19 Sur 0.2 -- -- 95
2019-04-18 01:00:00 8.3 13 Sur 22 Sur 0.4 -- -- 95
2019-04-18 00:00:00 8.5 8 Sur 18 Sur 0.8 -- -- 94
2019-04-17 23:00:00 8.8 8 Sur 17 Sur 0.2 -- -- 94
2019-04-17 22:00:00 8.8 9 Sur 21 Sur 0 -- -- 93
2019-04-17 21:00:00 9 9 Sudeste 22 Sudeste 1.8 -- -- 93
2019-04-17 20:00:00 9.3 9 Sudeste 17 Sudeste 2.6 -- -- 93
2019-04-17 19:00:00 9.8 8 Sudoeste 37 Oeste 3.8 -- -- 93
2019-04-17 18:00:00 12.1 19 Sudoeste 51 Sur 0.8 -- -- 85
2019-04-17 17:00:00 15.8 22 Sur 60 Sur 0 -- -- 57
2019-04-17 16:00:00 16.4 28 Sur 53 Sur 0 -- -- 58
2019-04-17 15:00:00 16.1 31 Sur 55 Sur 0 -- -- 57
2019-04-17 14:00:00 14.7 29 Sur 47 Sur 0 -- -- 64
2019-04-17 13:00:00 12.9 20 Sur 36 Sur 0 -- -- 65
2019-04-17 12:00:00 11.8 14 Sur 31 Sur 0 -- -- 69
2019-04-17 11:00:00 11.4 21 Sur 36 Sur 0 -- -- 70
2019-04-17 10:00:00 11 18 Sur 36 Sur 0 -- -- 72
2019-04-17 09:00:00 10.3 18 Sur 36 Sur 0 -- -- 73
2019-04-17 08:00:00 9.1 11 Sudeste 22 Sudeste 0 -- -- 75
2019-04-17 07:00:00 9.7 11 Sur 35 Sur 0 -- -- 70
2019-04-17 06:00:00 11 21 Sur 35 Sur 0 -- -- 64
2019-04-17 05:00:00 9.6 3 Sur 12 Sur 0 -- -- 65
2019-04-17 04:00:00 11.7 8 Sur 26 Sur 0 -- -- 60
2019-04-17 03:00:00 12.5 13 Sur 22 Sur 0 -- -- 61
2019-04-17 02:00:00 10.7 8 Este 22 Este 0 -- -- 68
2019-04-17 01:00:00 12.1 18 Este 25 Sudeste 0 -- -- 62
2019-04-17 00:00:00 11 9 Este 15 Este 0 -- -- 71
2019-04-16 23:00:00 10.9 8 Este 12 Este 0 -- -- 72
2019-04-16 22:00:00 11.9 9 Este 14 Este 0 -- -- 70
2019-04-16 21:00:00 13.9 8 Sudeste 17 Sudeste 0 -- -- 63
2019-04-16 20:00:00 15.5 11 Sudeste 24 Sudeste 0 -- -- 56
2019-04-16 19:00:00 16.7 14 Sudeste 26 Sudeste 0 -- -- 50
2019-04-16 18:00:00 17.3 16 Sur 30 Sur 0 -- -- 48
2019-04-16 17:00:00 16.8 18 Sur 30 Sur 0 -- -- 45
2019-04-16 16:00:00 17.1 17 Sur 33 Sur 0 -- -- 45
2019-04-16 15:00:00 16.5 18 Sur 34 Sur 0 -- -- 46
2019-04-16 14:00:00 15.4 12 Sur 23 Sur 0 -- -- 56
2019-04-16 13:00:00 14.3 13 Sur 24 Sudeste 0 -- -- 63
2019-04-16 12:00:00 12.5 5 Sur 13 Sudeste 0 -- -- 67
2019-04-16 11:00:00 10.4 10 Sudeste 22 Sudeste 0 -- -- 80
2019-04-16 10:00:00 8 10 Sudeste 17 Este 0 -- -- 90
2019-04-16 09:00:00 4.3 7 Este 11 Este 0 -- -- 98
2019-04-16 08:00:00 2.3 10 Este 14 Este 0 -- -- 97
2019-04-16 07:00:00 1.7 7 Este 9 Este 0 -- -- 97
2019-04-16 06:00:00 2.2 3 Sudeste 7 Sur 0 -- -- 96
2019-04-16 05:00:00 2.6 4 Sudeste 8 Sudeste 0 -- -- 95
2019-04-16 04:00:00 2.6 4 Sudoeste 6 Oeste 0 -- -- 93
2019-04-16 03:00:00 4.1 5 Oeste 9 Oeste 0 -- -- 93
2019-04-16 02:00:00 4.1 6 Sur 8 Sur 0 -- -- 91
2019-04-16 01:00:00 6.2 4 Norte 9 Oeste 0 -- -- 86
2019-04-16 00:00:00 7.2 5 Oeste 9 Oeste 0 -- -- 84
2019-04-15 23:00:00 7.7 6 Noroeste 14 Oeste 0 -- -- 85
2019-04-15 22:00:00 9 12 Noroeste 22 Oeste 0 -- -- 81
2019-04-15 21:00:00 11.1 13 Oeste 30 Oeste 0 -- -- 76
2019-04-15 20:00:00 12.8 21 Oeste 39 Oeste 0 -- -- 68
2019-04-15 19:00:00 13 23 Oeste 36 Oeste 0 -- -- 77
2019-04-15 18:00:00 12.1 14 Oeste 22 Oeste 0 -- -- 81
2019-04-15 17:00:00 10.6 5 Sudoeste 22 Oeste 0 -- -- 86
2019-04-15 16:00:00 9.4 7 Sudoeste 31 Oeste 2.6 -- -- 90
2019-04-15 15:00:00 11.1 21 Oeste 50 Oeste 0.2 -- -- 79
2019-04-15 14:00:00 13.2 31 Oeste 53 Oeste 0 -- -- 70
2019-04-15 13:00:00 15.9 25 Sudoeste 39 Sudoeste 0 -- -- 56
2019-04-15 12:00:00 15.9 22 Sudoeste 39 Sudoeste 0 -- -- 72
2019-04-15 11:00:00 15.2 19 Sudoeste 34 Sudoeste 0 -- -- 79
2019-04-15 10:00:00 14.4 14 Sur 24 Sur 0 -- -- 82
2019-04-15 09:00:00 13.1 8 Sur 17 Sur 0 -- -- 87
2019-04-15 08:00:00 12.4 6 Sur 12 Sudeste 0 -- -- 88
2019-04-15 07:00:00 12 5 Sudeste 8 Sur 0 -- -- 91
2019-04-15 06:00:00 11.8 6 Sur 11 Sur 0 -- -- 91
2019-04-15 05:00:00 12.1 8 Sur 12 Sur 0 -- -- 90
2019-04-15 04:00:00 11.7 5 Sur 8 Sur 0 -- -- 90
2019-04-15 03:00:00 11.5 4 Sur 9 Sur 0 -- -- 91
2019-04-15 02:00:00 11.5 5 Sur 10 Sur 0 -- -- 89
2019-04-15 01:00:00 11.7 5 Sur 7 Sur 0 -- -- 90
2019-04-15 00:00:00 12 4 Sudeste 6 Sudeste 0 -- -- 86
2019-04-14 23:00:00 15 3 Sur 10 Sudoeste 0 -- -- 79
2019-04-14 22:00:00 15.9 0 Calma 3 Oeste 0 -- -- 80
2019-04-14 21:00:00 17.5 0 Calma 3 Noroeste 0 -- -- 71
2019-04-14 20:00:00 18.7 0 Calma 9 Noroeste 0 -- -- 63
2019-04-14 19:00:00 18.5 4 Oeste 14 Sudoeste 0 -- -- 63
2019-04-14 18:00:00 18.5 7 Oeste 18 Oeste 0 -- -- 62
2019-04-14 17:00:00 18.4 4 Sudoeste 15 Sudoeste 0 -- -- 65
2019-04-14 16:00:00 18.1 10 Sudoeste 21 Sudoeste 0 -- -- 68
2019-04-14 15:00:00 17.1 8 Noroeste 14 Oeste 0 -- -- 71
2019-04-14 14:00:00 16.8 3 Sudoeste 17 Oeste 0 -- -- 72
2019-04-14 13:00:00 15.9 7 Oeste 15 Sudoeste 0 -- -- 78
2019-04-14 12:00:00 14.5 5 Sudoeste 10 Sur 0 -- -- 87
2019-04-14 11:00:00 13.3 6 Sur 9 Sudoeste 0 -- -- 92
2019-04-14 10:00:00 12.3 6 Sudoeste 10 Sur 0 -- -- 93
2019-04-14 09:00:00 11.8 6 Sur 10 Sur 0 -- -- 94
2019-04-14 08:00:00 11.5 4 Sur 7 Sur 0 -- -- 94
2019-04-14 07:00:00 11.2 3 Sur 8 Sudoeste 0 -- -- 94
2019-04-14 06:00:00 11.3 6 Oeste 13 Sudoeste 0 -- -- 93
2019-04-14 05:00:00 11.4 7 Sudoeste 10 Sudoeste 0 -- -- 93
2019-04-14 04:00:00 11.2 4 Oeste 13 Sudoeste 0 -- -- 93
2019-04-14 03:00:00 11.4 5 Oeste 14 Oeste 0 -- -- 92
2019-04-14 02:00:00 12.1 10 Oeste 20 Oeste 0 -- -- 90
2019-04-14 01:00:00 12.4 13 Oeste 23 Oeste 0 -- -- 89
2019-04-14 00:00:00 12.8 13 Oeste 24 Oeste 0 -- -- 85
2019-04-13 23:00:00 13.3 17 Oeste 27 Oeste 0 -- -- 80
2019-04-13 22:00:00 13.6 13 Oeste 22 Oeste 0 -- -- 74
2019-04-13 21:00:00 14.6 12 Oeste 23 Oeste 0 -- -- 67
2019-04-13 20:00:00 15.8 15 Oeste 26 Oeste 0 -- -- 59
2019-04-13 19:00:00 17.8 18 Oeste 30 Oeste 0 -- -- 47
2019-04-13 18:00:00 18 17 Oeste 27 Oeste 0 -- -- 45
2019-04-13 17:00:00 19.4 11 Sudoeste 22 Oeste 0 -- -- 41
2019-04-13 16:00:00 19 10 Oeste 17 Oeste 0 -- -- 43
2019-04-13 15:00:00 18.2 3 Oeste 18 Oeste 0 -- -- 38
2019-04-13 14:00:00 17.3 6 Oeste 15 Sudoeste 0 -- -- 39
2019-04-13 13:00:00 16.7 6 Sur 17 Sur 0 -- -- 45
2019-04-13 12:00:00 15.4 6 Sur 13 Sudeste 0 -- -- 52
2019-04-13 11:00:00 13.5 8 Sur 12 Sudeste 0 -- -- 64
2019-04-13 10:00:00 10 7 Sur 10 Sur 0 -- -- 78
2019-04-13 09:00:00 7.9 6 Sur 10 Sur 0 -- -- 86
2019-04-13 08:00:00 6.3 4 Sur 11 Sur 0 -- -- 89
2019-04-13 07:00:00 6 8 Sur 10 Sur 0 -- -- 91
2019-04-13 06:00:00 5.9 0 Calma 4 Sudoeste 0 -- -- 90
2019-04-13 05:00:00 6.3 0 Calma 3 Oeste 0 -- -- 88
2019-04-13 04:00:00 6.7 2 Sudoeste 6 Sudoeste 0 -- -- 89
2019-04-13 03:00:00 5.2 2 Sudoeste 5 Sur 0 -- -- 86
2019-04-13 02:00:00 6.6 0 Calma 11 Sudoeste 0 -- -- 78
2019-04-13 01:00:00 8.3 6 Sudoeste 18 Oeste 0 -- -- 73
2019-04-13 00:00:00 6.5 4 Sudeste 6 Sudeste 0 -- -- 69
2019-04-12 23:00:00 6.3 4 Este 6 Este 0 -- -- 69
2019-04-12 22:00:00 7.5 3 Sudeste 5 Este 0 -- -- 63
2019-04-12 21:00:00 12.1 0 Calma 5 Oeste 0 -- -- 50
2019-04-12 20:00:00 16.1 4 Noroeste 11 Noroeste 0 -- -- 38
2019-04-12 19:00:00 15.9 5 Noroeste 13 Oeste 0 -- -- 37
2019-04-12 18:00:00 15.8 9 Noroeste 17 Noroeste 0 -- -- 40
2019-04-12 17:00:00 15.4 8 Noroeste 15 Noroeste 0 -- -- 45
2019-04-12 16:00:00 15 8 Sudoeste 21 Noroeste 0 -- -- 46
2019-04-12 15:00:00 14.4 3 Sudoeste 14 Noroeste 0 -- -- 49
2019-04-12 14:00:00 13.3 4 Nordeste 14 Noroeste 0 -- -- 50
2019-04-12 13:00:00 12.5 4 Noroeste 11 Oeste 0 -- -- 61
2019-04-12 12:00:00 10.9 3 Nordeste 8 Nordeste 0 -- -- 65
2019-04-12 11:00:00 9.2 2 Norte 7 Norte 0 -- -- 75
2019-04-12 10:00:00 7.5 0 Calma 4 Este 0 -- -- 80
2019-04-12 09:00:00 3.7 2 Sudeste 5 Este 0 -- -- 90
2019-04-12 08:00:00 1.2 0 Calma 8 Este 0 -- -- 90
2019-04-12 07:00:00 2.5 3 Sudeste 10 Sur 0 -- -- 89
2019-04-12 06:00:00 3.8 4 Sur 18 Este 0 -- -- 89
2019-04-12 05:00:00 3.4 0 Calma 8 Este 0 -- -- 90
2019-04-12 04:00:00 4.6 2 Nordeste 13 Oeste 0 -- -- 85
2019-04-12 03:00:00 3.1 2 Oeste 6 Oeste 0 -- -- 84
2019-04-12 02:00:00 4 0 Calma 12 Oeste 0 -- -- 77
2019-04-12 01:00:00 6.3 4 Sudeste 13 Oeste 0 -- -- 77
2019-04-12 00:00:00 4.9 2 Sudeste 8 Este 0 -- -- 78
2019-04-11 23:00:00 4.4 2 Este 2 Este 0 -- -- 78
2019-04-11 22:00:00 5.5 0 Calma 2 Este 0 -- -- 72
2019-04-11 21:00:00 11.2 0 Calma 6 Norte 0 -- -- 54
2019-04-11 20:00:00 13 2 Norte 10 Norte 0 -- -- 48
2019-04-11 19:00:00 12.9 5 Nordeste 21 Nordeste 0 -- -- 49
2019-04-11 18:00:00 13.8 9 Nordeste 18 Nordeste 0 -- -- 48
2019-04-11 17:00:00 12.7 10 Nordeste 23 Norte 0 -- -- 50
2019-04-11 16:00:00 12.7 7 Norte 17 Noroeste 0 -- -- 49
2019-04-11 15:00:00 11.6 8 Nordeste 19 Norte 0 -- -- 55
2019-04-11 14:00:00 11.6 6 Nordeste 14 Noroeste 0 -- -- 58
2019-04-11 13:00:00 10.5 5 Nordeste 15 Nordeste 0 -- -- 60
2019-04-11 12:00:00 10.3 7 Este 15 Sudeste 0 -- -- 62
2019-04-11 11:00:00 8.8 6 Este 12 Este 0 -- -- 73
2019-04-11 10:00:00 6.5 6 Este 12 Este 0 -- -- 89
2019-04-11 09:00:00 2 0 Calma 4 Este 0 -- -- 97
2019-04-11 08:00:00 -0.4 0 Calma 2 Norte 0 -- -- 94
2019-04-11 07:00:00 0.4 0 Calma 5 Este 0 -- -- 92
2019-04-11 06:00:00 1.1 3 Este 8 Nordeste 0 -- -- 88
2019-04-11 05:00:00 1.6 4 Nordeste 6 Nordeste 0 -- -- 91
2019-04-11 04:00:00 3.7 3 Noroeste 10 Nordeste 0 -- -- 87
2019-04-11 03:00:00 3.7 3 Norte 10 Noroeste 0 -- -- 91
2019-04-11 02:00:00 3.1 3 Noroeste 5 Oeste 0 -- -- 90
2019-04-11 01:00:00 4.5 0 Calma 8 Noroeste 0 -- -- 86
2019-04-11 00:00:00 7.1 0 Calma 12 Nordeste 0 -- -- 81
2019-04-10 23:00:00 7.3 6 Oeste 13 Noroeste 0 -- -- 80
2019-04-10 22:00:00 8.8 3 Norte 19 Noroeste 0 -- -- 75
2019-04-10 21:00:00 9.9 10 Noroeste 32 Noroeste 0 -- -- 68
2019-04-10 20:00:00 11.7 17 Noroeste 31 Noroeste 0 -- -- 63
2019-04-10 19:00:00 12.1 14 Noroeste 34 Noroeste 0 -- -- 61
2019-04-10 18:00:00 13 25 Noroeste 40 Noroeste 0 -- -- 59
2019-04-10 17:00:00 12.4 17 Noroeste 36 Norte 0 -- -- 60
2019-04-10 16:00:00 12.4 21 Noroeste 39 Noroeste 0 -- -- 62
2019-04-10 15:00:00 11.4 17 Noroeste 35 Noroeste 0 -- -- 63
2019-04-10 14:00:00 10.2 20 Noroeste 38 Noroeste 0 -- -- 68
2019-04-10 13:00:00 9.6 17 Noroeste 32 Noroeste 0 -- -- 70
2019-04-10 12:00:00 8.8 19 Noroeste 35 Noroeste 0 -- -- 77
2019-04-10 11:00:00 7.4 12 Noroeste 25 Noroeste 0 -- -- 89
2019-04-10 10:00:00 5.8 13 Oeste 22 Oeste 0.4 -- -- 95
2019-04-10 09:00:00 5.3 9 Oeste 20 Oeste 0 -- -- 95
2019-04-10 08:00:00 5.3 10 Oeste 20 Oeste 0 -- -- 94
2019-04-10 07:00:00 5.1 13 Oeste 22 Oeste 0 -- -- 93
2019-04-10 06:00:00 5.2 11 Sudoeste 22 Oeste 0 -- -- 91
2019-04-10 05:00:00 4.9 11 Oeste 20 Oeste 0 -- -- 90
2019-04-10 04:00:00 4.9 14 Oeste 27 Oeste 0 -- -- 89
2019-04-10 03:00:00 5.5 17 Oeste 27 Oeste 0 -- -- 90
2019-04-10 02:00:00 5.1 13 Oeste 22 Oeste 0 -- -- 93
2019-04-10 01:00:00 5.9 12 Oeste 23 Oeste 0.2 -- -- 93
2019-04-10 00:00:00 6.1 9 Oeste 20 Noroeste 0 -- -- 94
2019-04-09 23:00:00 6.2 9 Noroeste 31 Oeste 0.2 -- -- 92
2019-04-09 22:00:00 6.9 17 Oeste 28 Oeste 0.2 -- -- 88
2019-04-09 21:00:00 6.9 10 Oeste 37 Oeste 0 -- -- 86
2019-04-09 20:00:00 9.4 22 Oeste 43 Oeste 0 -- -- 71
2019-04-09 19:00:00 10.2 25 Oeste 43 Oeste 0 -- -- 67
2019-04-09 18:00:00 10.5 25 Oeste 43 Oeste 0 -- -- 63
2019-04-09 17:00:00 10.4 19 Oeste 37 Oeste 0 -- -- 66
2019-04-09 16:00:00 8.1 21 Noroeste 42 Oeste 0 -- -- 79
2019-04-09 15:00:00 9.8 18 Oeste 39 Noroeste 0 -- -- 64
2019-04-09 14:00:00 9.4 19 Oeste 32 Oeste 0 -- -- 67
2019-04-09 13:00:00 8.3 18 Oeste 31 Oeste 0 -- -- 78
2019-04-09 12:00:00 6.6 18 Oeste 27 Oeste 0.2 -- -- 89
2019-04-09 11:00:00 4.6 13 Sudoeste 28 Sudoeste 2.8 -- -- 94
2019-04-09 10:00:00 4 21 Oeste 36 Oeste 3.8 -- -- 91
2019-04-09 09:00:00 5 13 Sudoeste 30 Oeste 0.2 -- -- 90
2019-04-09 08:00:00 5.1 13 Sudoeste 24 Sudoeste 0 -- -- 93
2019-04-09 07:00:00 5 12 Sur 23 Sur 0 -- -- 94
2019-04-09 06:00:00 4.9 14 Sudoeste 24 Sudoeste 0.2 -- -- 93
2019-04-09 05:00:00 4.8 10 Sudoeste 19 Sudoeste 0.2 -- -- 92
2019-04-09 04:00:00 4.8 12 Sudoeste 23 Sudoeste 0 -- -- 91
2019-04-09 03:00:00 4.3 9 Sur 17 Sur 0 -- -- 90
2019-04-09 02:00:00 4.7 8 Sudoeste 18 Sudoeste 0 -- -- 86
2019-04-09 01:00:00 5.2 10 Sudoeste 22 Sudoeste 0 -- -- 87
2019-04-09 00:00:00 6.3 15 Sudoeste 27 Sudoeste 0 -- -- 83
2019-04-08 23:00:00 6.7 11 Sudoeste 27 Oeste 0 -- -- 80
2019-04-08 22:00:00 7.4 15 Oeste 23 Oeste 0 -- -- 77
2019-04-08 21:00:00 7.6 8 Oeste 31 Oeste 0 -- -- 79
2019-04-08 20:00:00 8.6 17 Oeste 27 Oeste 0 -- -- 76
2019-04-08 19:00:00 9.5 17 Oeste 30 Sudoeste 0 -- -- 72
2019-04-08 18:00:00 9.5 16 Sudoeste 30 Oeste 0 -- -- 77
2019-04-08 17:00:00 8.1 15 Oeste 38 Oeste 1.4 -- -- 83
2019-04-08 16:00:00 10.5 21 Oeste 38 Oeste 0 -- -- 73
2019-04-08 15:00:00 11.6 14 Oeste 37 Oeste 0 -- -- 62
2019-04-08 14:00:00 10.4 20 Oeste 37 Oeste 0 -- -- 69
2019-04-08 13:00:00 9.3 15 Oeste 31 Oeste 0 -- -- 70
2019-04-08 12:00:00 9 12 Oeste 24 Oeste 0 -- -- 75
2019-04-08 11:00:00 7.8 15 Oeste 24 Oeste 0 -- -- 87
2019-04-08 10:00:00 7.1 8 Oeste 17 Oeste 0.2 -- -- 95
2019-04-08 09:00:00 6.6 6 Sudoeste 13 Sudoeste 0 -- -- 95
2019-04-08 08:00:00 6.4 9 Oeste 17 Oeste 0 -- -- 94
2019-04-08 07:00:00 7.1 12 Oeste 26 Oeste 0 -- -- 93
2019-04-08 06:00:00 7.6 18 Oeste 34 Oeste 0.4 -- -- 93
2019-04-08 05:00:00 8.1 15 Oeste 29 Oeste 0.2 -- -- 94
2019-04-08 04:00:00 8.4 20 Oeste 40 Oeste 1.6 -- -- 95
2019-04-08 03:00:00 8.6 16 Sudoeste 26 Sur 0.2 -- -- 92
2019-04-08 02:00:00 8.7 17 Sudoeste 29 Sur 0 -- -- 89
2019-04-08 01:00:00 8.3 12 Sudoeste 26 Sudoeste 0 -- -- 91
2019-04-08 00:00:00 8.3 12 Sur 20 Sudoeste 0 -- -- 93
2019-04-07 23:00:00 8.5 8 Sudoeste 28 Sudoeste 0 -- -- 92
2019-04-07 22:00:00 8.8 16 Sudoeste 31 Sudoeste 0.2 -- -- 93
2019-04-07 21:00:00 8.6 16 Sudoeste 32 Sudoeste 0.2 -- -- 94
2019-04-07 20:00:00 8.8 16 Sudoeste 28 Sudoeste 0.4 -- -- 93
2019-04-07 19:00:00 8.6 9 Sudoeste 24 Sur 0.2 -- -- 94
2019-04-07 18:00:00 8 17 Sur 27 Sur 1.2 -- -- 94
2019-04-07 17:00:00 7.8 13 Sur 23 Sur 1 -- -- 91
2019-04-07 16:00:00 7.9 14 Sudoeste 29 Sudoeste 0.4 -- -- 88
2019-04-07 15:00:00 8.8 15 Sudoeste 27 Sudoeste 0 -- -- 71
2019-04-07 14:00:00 8.7 14 Sudoeste 25 Sudoeste 0 -- -- 74
2019-04-07 13:00:00 7.8 16 Sudoeste 24 Sudoeste 0 -- -- 80
2019-04-07 12:00:00 6.4 9 Sudoeste 18 Sudoeste 0 -- -- 88
2019-04-07 11:00:00 5.3 11 Sudoeste 18 Sudoeste 0 -- -- 92
2019-04-07 10:00:00 4.9 10 Sudoeste 16 Sudoeste 0 -- -- 93
2019-04-07 09:00:00 4 7 Sudoeste 12 Sudoeste 0 -- -- 95
2019-04-07 08:00:00 3.5 6 Sudoeste 12 Sudoeste 0 -- -- 94
2019-04-07 07:00:00 3.6 8 Sudoeste 17 Sudoeste 0 -- -- 94
2019-04-07 06:00:00 3.1 8 Sudoeste 17 Oeste 0 -- -- 94
2019-04-07 05:00:00 3.2 8 Oeste 18 Oeste 0 -- -- 93
2019-04-07 04:00:00 3.2 11 Oeste 24 Oeste 0 -- -- 92
2019-04-07 03:00:00 3.8 15 Oeste 22 Oeste 0 -- -- 93
2019-04-07 02:00:00 3.6 14 Oeste 21 Oeste 0 -- -- 93
2019-04-07 01:00:00 3.8 12 Oeste 20 Oeste 0 -- -- 93
2019-04-07 00:00:00 4 14 Oeste 32 Oeste 0 -- -- 92
2019-04-06 23:00:00 4.5 18 Oeste 28 Sudoeste 0.4 -- -- 90
2019-04-06 22:00:00 4.7 14 Oeste 28 Oeste 0 -- -- 83
2019-04-06 21:00:00 5.2 16 Oeste 32 Oeste 0 -- -- 80
2019-04-06 20:00:00 5.6 19 Oeste 46 Oeste 0 -- -- 79
2019-04-06 19:00:00 7.3 27 Oeste 47 Oeste 0 -- -- 73
2019-04-06 18:00:00 7.1 31 Oeste 50 Oeste 0 -- -- 69
2019-04-06 17:00:00 8.4 26 Oeste 44 Noroeste 0.2 -- -- 73
2019-04-06 16:00:00 6.6 15 Oeste 49 Oeste 0 -- -- 80
2019-04-06 15:00:00 5.7 17 Oeste 45 Sudoeste 0.2 -- -- 86
2019-04-06 14:00:00 4.8 21 Oeste 46 Oeste 0.6 -- -- 91
2019-04-06 13:00:00 5.7 28 Oeste 52 Oeste 0.2 -- -- 84
2019-04-06 12:00:00 4.5 21 Oeste 48 Sudoeste 0.6 -- -- 90
2019-04-06 11:00:00 2.8 14 Sudoeste 29 Sudoeste 0.2 -- -- 94
2019-04-06 10:00:00 1.7 21 Sudoeste 37 Sudoeste 0.4 -- -- 94
2019-04-06 09:00:00 2.4 19 Sudoeste 35 Sudoeste 0.2 -- -- 92
2019-04-06 08:00:00 2.8 17 Sudoeste 32 Oeste 1.2 -- -- 93
2019-04-06 07:00:00 3.1 17 Sudoeste 30 Sudoeste 1 -- -- 93
2019-04-06 06:00:00 3.1 12 Sudoeste 28 Sudoeste 0.8 -- -- 91
2019-04-06 05:00:00 3.3 15 Sudoeste 23 Sudoeste 0 -- -- 89
2019-04-06 04:00:00 3.7 13 Sudoeste 25 Sudoeste 0 -- -- 89
2019-04-06 03:00:00 3.3 12 Sudoeste 24 Sudoeste 0 -- -- 92
2019-04-06 02:00:00 3.1 10 Sudoeste 21 Sudoeste 0 -- -- 92
2019-04-06 01:00:00 3.1 10 Sudoeste 25 Oeste 0 -- -- 92
2019-04-06 00:00:00 3.3 13 Oeste 24 Oeste 0 -- -- 91
2019-04-05 23:00:00 3.1 12 Oeste 21 Oeste 0 -- -- 91
2019-04-05 22:00:00 3.6 13 Oeste 21 Oeste 0 -- -- 89
2019-04-05 21:00:00 3.7 7 Noroeste 31 Oeste 0.8 -- -- 91
2019-04-05 20:00:00 5.2 17 Oeste 37 Sudoeste 0 -- -- 82
2019-04-05 19:00:00 5.2 21 Oeste 40 Oeste 0 -- -- 85
2019-04-05 18:00:00 4.4 19 Oeste 50 Oeste 1.2 -- -- 88
2019-04-05 17:00:00 6.6 28 Oeste 57 Oeste 0 -- -- 70
2019-04-05 16:00:00 7.9 20 Oeste 32 Oeste 0 -- -- 59
2019-04-05 15:00:00 7.3 20 Oeste 36 Oeste 0 -- -- 67
2019-04-05 14:00:00 6 18 Oeste 29 Oeste 0 -- -- 75
2019-04-05 13:00:00 4.1 18 Oeste 26 Oeste 0 -- -- 85
2019-04-05 12:00:00 3.1 6 Oeste 11 Sudoeste 0.4 -- -- 93
2019-04-05 11:00:00 1.6 7 Oeste 19 Oeste 1.2 -- -- 91
2019-04-05 10:00:00 3.1 5 Sudoeste 11 Sudoeste 0.2 -- -- 89
2019-04-05 09:00:00 2.7 6 Sudoeste 13 Sudoeste 0 -- -- 91
2019-04-05 08:00:00 2.3 8 Sudoeste 13 Sudoeste 0 -- -- 91
2019-04-05 07:00:00 2.5 8 Sudoeste 18 Oeste 0 -- -- 90
2019-04-05 06:00:00 3.1 7 Oeste 26 Oeste 0.2 -- -- 94
2019-04-05 05:00:00 3.5 13 Oeste 33 Oeste 1.6 -- -- 94
2019-04-05 04:00:00 4.5 16 Sudoeste 27 Sudoeste 0.8 -- -- 95
2019-04-05 03:00:00 4.2 15 Sudoeste 36 Sur 0.6 -- -- 93
2019-04-05 02:00:00 4.2 21 Sur 38 Sudoeste 0 -- -- 90
2019-04-05 01:00:00 4.2 21 Sur 37 Sur 0 -- -- 92
2019-04-05 00:00:00 4 18 Sur 30 Sur 0 -- -- 92
2019-04-04 23:00:00 3.9 17 Sur 28 Sur 0.2 -- -- 92
2019-04-04 22:00:00 4.1 12 Sur 24 Sudoeste 0.8 -- -- 90
2019-04-04 21:00:00 5.1 9 Sudoeste 19 Oeste 1 -- -- 85
2019-04-04 20:00:00 5.6 9 Oeste 23 Noroeste 0.2 -- -- 80
2019-04-04 19:00:00 6.9 18 Oeste 29 Oeste 0 -- -- 70
2019-04-04 18:00:00 8.1 17 Oeste 34 Oeste 0 -- -- 62
2019-04-04 17:00:00 9.7 18 Oeste 37 Oeste 0 -- -- 51
2019-04-04 16:00:00 10.7 19 Oeste 34 Oeste 0 -- -- 46
2019-04-04 15:00:00 9.5 14 Oeste 24 Oeste 0 -- -- 46
2019-04-04 14:00:00 8.1 8 Oeste 18 Oeste 0 -- -- 51
2019-04-04 13:00:00 6.8 10 Oeste 21 Sudoeste 0 -- -- 59
2019-04-04 12:00:00 6.3 6 Sudoeste 14 Sudoeste 0 -- -- 61
2019-04-04 11:00:00 4.6 4 Norte 13 Oeste 0 -- -- 68
2019-04-04 10:00:00 1.9 5 Sudoeste 12 Sur 0 -- -- 80
2019-04-04 09:00:00 -1.1 4 Sur 8 Sur 0 -- -- 90
2019-04-04 08:00:00 -3.1 0 Calma 5 Noroeste 0 -- -- 88
2019-04-04 07:00:00 -1.4 4 Noroeste 13 Noroeste 0 -- -- 87
2019-04-04 06:00:00 -1.6 7 Noroeste 9 Noroeste 0 -- -- 86
2019-04-04 05:00:00 -0.9 5 Noroeste 11 Oeste 0 -- -- 83
2019-04-04 04:00:00 0.1 6 Noroeste 17 Noroeste 0 -- -- 77
2019-04-04 03:00:00 1.3 15 Noroeste 26 Noroeste 0 -- -- 74
2019-04-04 02:00:00 2.1 14 Norte 23 Noroeste 0 -- -- 69
2019-04-04 01:00:00 1.8 11 Noroeste 25 Norte 0 -- -- 69
2019-04-04 00:00:00 2.8 12 Noroeste 23 Norte 0 -- -- 67
2019-04-03 23:00:00 3.9 5 Noroeste 15 Norte 0 -- -- 63
2019-04-03 22:00:00 4.9 5 Norte 23 Noroeste 0 -- -- 62
2019-04-03 21:00:00 6.9 13 Norte 31 Norte 0 -- -- 50
2019-04-03 20:00:00 9.2 17 Noroeste 33 Noroeste 0 -- -- 43
2019-04-03 19:00:00 9.9 24 Noroeste 45 Noroeste 0 -- -- 44
2019-04-03 18:00:00 10.5 26 Noroeste 42 Noroeste 0 -- -- 44
2019-04-03 17:00:00 9.7 16 Norte 33 Norte 0 -- -- 46
2019-04-03 16:00:00 10 19 Norte 38 Noroeste 0 -- -- 48
2019-04-03 15:00:00 9.5 19 Noroeste 36 Noroeste 0 -- -- 50
2019-04-03 14:00:00 9.1 19 Noroeste 38 Noroeste 0 -- -- 56
2019-04-03 13:00:00 8 22 Noroeste 37 Noroeste 0 -- -- 59
2019-04-03 12:00:00 7.2 17 Noroeste 32 Norte 0 -- -- 65
2019-04-03 11:00:00 6.4 14 Noroeste 26 Noroeste 0 -- -- 68
2019-04-03 10:00:00 5.2 17 Noroeste 26 Noroeste 0 -- -- 72
2019-04-03 09:00:00 4.2 9 Noroeste 17 Noroeste 0 -- -- 78
2019-04-03 08:00:00 4.4 9 Noroeste 23 Noroeste 0 -- -- 80
2019-04-03 07:00:00 4.3 8 Noroeste 16 Noroeste 0 -- -- 85
2019-04-03 06:00:00 5.2 4 Oeste 8 Oeste 0 -- -- 85
2019-04-03 05:00:00 5.5 5 Oeste 9 Noroeste 0 -- -- 86
2019-04-03 04:00:00 5.5 4 Oeste 8 Oeste 0 -- -- 89
2019-04-03 03:00:00 6.2 7 Oeste 12 Sudoeste 0 -- -- 84
2019-04-03 02:00:00 6.1 2 Noroeste 15 Oeste 0 -- -- 80
2019-04-03 01:00:00 7.8 8 Oeste 13 Oeste 0 -- -- 77
2019-04-03 00:00:00 8.7 10 Oeste 18 Oeste 0 -- -- 74
2019-04-02 23:00:00 9.4 10 Oeste 19 Oeste 0 -- -- 68
2019-04-02 22:00:00 10.5 10 Oeste 16 Oeste 0 -- -- 60
2019-04-02 21:00:00 12.6 11 Noroeste 22 Noroeste 0 -- -- 55
2019-04-02 20:00:00 15.8 9 Noroeste 24 Noroeste 0 -- -- 39
2019-04-02 19:00:00 16.7 14 Noroeste 30 Noroeste 0 -- -- 35
2019-04-02 18:00:00 16.5 15 Noroeste 31 Noroeste 0 -- -- 39
2019-04-02 17:00:00 16.7 17 Noroeste 34 Noroeste 0 -- -- 40
2019-04-02 16:00:00 16.5 15 Oeste 31 Noroeste 0 -- -- 39
2019-04-02 15:00:00 16 13 Oeste 28 Oeste 0 -- -- 39
2019-04-02 14:00:00 14.8 12 Noroeste 24 Noroeste 0 -- -- 52
2019-04-02 13:00:00 13.4 11 Oeste 19 Sudoeste 0 -- -- 62
2019-04-02 12:00:00 11.6 10 Oeste 21 Oeste 0 -- -- 73
2019-04-02 11:00:00 10.2 8 Oeste 12 Oeste 0 -- -- 77
2019-04-02 10:00:00 9.3 6 Sudoeste 10 Sudoeste 0 -- -- 83
2019-04-02 09:00:00 8.1 4 Sudoeste 6 Sudoeste 0 -- -- 89
2019-04-02 08:00:00 6.5 0 Calma 9 Sudoeste 0 -- -- 90
2019-04-02 07:00:00 7.4 8 Sudoeste 10 Sur 0 -- -- 88
2019-04-02 06:00:00 7.7 5 Sur 11 Sudoeste 0 -- -- 87
2019-04-02 05:00:00 8.6 5 Sudoeste 9 Sudoeste 0 -- -- 85
2019-04-02 04:00:00 8.7 7 Oeste 13 Oeste 0 -- -- 85
2019-04-02 03:00:00 8.5 6 Oeste 10 Oeste 0 -- -- 83
2019-04-02 02:00:00 9.1 6 Sudoeste 12 Sudoeste 0 -- -- 82
2019-04-02 01:00:00 8.2 5 Sur 9 Sudeste 0 -- -- 86
2019-04-02 00:00:00 8.6 9 Sur 13 Sur 0 -- -- 86
2019-04-01 23:00:00 8.8 4 Sudeste 10 Nordeste 0 -- -- 82
2019-04-01 22:00:00 10.2 4 Norte 18 Noroeste 0.4 -- -- 81
2019-04-01 21:00:00 11.6 5 Noroeste 13 Sudoeste 0 -- -- 72
2019-04-01 20:00:00 12.4 10 Sudoeste 21 Sudoeste 0 -- -- 62
2019-04-01 19:00:00 12.6 14 Sudoeste 26 Sudoeste 0 -- -- 64
2019-04-01 18:00:00 14.2 19 Sudoeste 38 Sudoeste 0 -- -- 60
2019-04-01 17:00:00 16.8 4 Sur 13 Nordeste 0 -- -- 46
2019-04-01 16:00:00 16.7 3 Este 9 Nordeste 0 -- -- 48
2019-04-01 15:00:00 15.4 5 Norte 10 Nordeste 0 -- -- 53
2019-04-01 14:00:00 14.6 4 Norte 16 Este 0 -- -- 54
2019-04-01 13:00:00 13.8 3 Este 14 Este 0 -- -- 59
2019-04-01 12:00:00 12 5 Este 14 Este 0 -- -- 67
2019-04-01 11:00:00 9.7 9 Este 15 Este 0 -- -- 76
2019-04-01 10:00:00 7.6 9 Sudeste 13 Este 0 -- -- 83
2019-04-01 09:00:00 5 8 Este 12 Este 0 -- -- 90
2019-04-01 08:00:00 4.3 8 Este 12 Este 0 -- -- 92
2019-04-01 07:00:00 4.2 7 Este 9 Este 0 -- -- 91
2019-04-01 06:00:00 4.8 3 Este 5 Este 0 -- -- 89
2019-04-01 05:00:00 6.3 4 Sudoeste 6 Sudoeste 0 -- -- 85
2019-04-01 04:00:00 6.9 2 Sudoeste 18 Sudoeste 0 -- -- 82
2019-04-01 03:00:00 8.1 11 Sudoeste 19 Sudoeste 0 -- -- 80
2019-04-01 02:00:00 8 9 Sur 15 Sur 0 -- -- 79
2019-04-01 01:00:00 7.3 10 Sur 14 Sur 0 -- -- 75
2019-04-01 00:00:00 6.7 9 Sur 13 Sur 0 -- -- 77
2019-03-31 23:00:00 7.4 0 Calma 10 Este 0 -- -- 73
2019-03-31 22:00:00 10.1 0 Calma 9 Oeste 0 -- -- 63
2019-03-31 21:00:00 12.7 6 Oeste 16 Sudoeste 0 -- -- 54
2019-03-31 20:00:00 15.2 12 Sudoeste 19 Sudoeste 0 -- -- 45
2019-03-31 19:00:00 16.8 9 Sudoeste 15 Sudoeste 0 -- -- 41
2019-03-31 18:00:00 14.8 7 Sur 22 Sudeste 0 -- -- 49
2019-03-31 17:00:00 16.4 14 Sudeste 22 Sudeste 0 -- -- 44
2019-03-31 16:00:00 18.4 9 Nordeste 24 Nordeste 0 -- -- 39
2019-03-31 15:00:00 17.1 5 Norte 17 Nordeste 0 -- -- 39
2019-03-31 14:00:00 16.1 5 Este 17 Nordeste 0 -- -- 44
2019-03-31 13:00:00 14.9 6 Este 15 Este 0 -- -- 45
2019-03-31 12:00:00 12.5 7 Este 15 Nordeste 0 -- -- 57
2019-03-31 11:00:00 9.6 8 Nordeste 13 Nordeste 0 -- -- 62
2019-03-31 10:00:00 8.1 5 Este 11 Este 0 -- -- 65
2019-03-31 09:00:00 3.3 3 Este 11 Este 0 -- -- 81
2019-03-31 08:00:00 2.6 3 Sudeste 10 Este 0 -- -- 81
2019-03-31 07:00:00 2.4 8 Sudeste 10 Este 0 -- -- 84
2019-03-31 06:00:00 3.2 0 Calma 10 Sudeste 0 -- -- 78
2019-03-31 05:00:00 3.9 7 Sudeste 14 Sudeste 0 -- -- 76
2019-03-31 03:00:00 5.4 5 Sur 19 Este 0 -- -- 70
2019-03-31 01:00:00 6.3 3 Sur 5 Sudeste 0 -- -- 68
2019-03-31 00:00:00 8.9 3 Sudeste 10 Sur 0 -- -- 62
2019-03-30 23:00:00 11.4 6 Sur 12 Sur 0 -- -- 51
2019-03-30 22:00:00 11.9 5 Sur 14 Sur 0 -- -- 52
2019-03-30 21:00:00 11.5 0 Calma 4 Este 0 -- -- 54
2019-03-30 20:00:00 12.5 3 Este 7 Sudeste 0 -- -- 55
2019-03-30 19:00:00 15.5 4 Sudeste 9 Sudeste 0 -- -- 39
2019-03-30 18:00:00 17.6 8 Sudeste 16 Nordeste 0 -- -- 29
2019-03-30 17:00:00 18.4 2 Sur 13 Este 0 -- -- 27
2019-03-30 16:00:00 18.1 5 Este 15 Este 0 -- -- 28
2019-03-30 15:00:00 17.7 8 Nordeste 18 Sur 0 -- -- 29
2019-03-30 14:00:00 17.1 7 Este 16 Sudeste 0 -- -- 30
2019-03-30 13:00:00 17.1 9 Sur 17 Sur 0 -- -- 33
2019-03-30 12:00:00 15.9 9 Sudoeste 19 Sudoeste 0 -- -- 35
2019-03-30 11:00:00 14.4 10 Sur 23 Sudoeste 0 -- -- 45
2019-03-30 10:00:00 12.1 10 Sur 17 Sur 0 -- -- 48
2019-03-30 09:00:00 8.9 10 Sur 16 Sur 0 -- -- 53
2019-03-30 08:00:00 3.7 5 Sudeste 7 Sudeste 0 -- -- 68
2019-03-30 07:00:00 3.6 3 Sur 12 Sur 0 -- -- 62
2019-03-30 06:00:00 4.5 5 Sur 10 Sur 0 -- -- 57
2019-03-30 05:00:00 5.1 9 Sur 13 Sur 0 -- -- 56
2019-03-30 04:00:00 5.9 9 Sur 12 Sur 0 -- -- 54
2019-03-30 03:00:00 6.2 8 Sur 13 Sur 0 -- -- 54
2019-03-30 02:00:00 6.4 9 Sur 13 Sur 0 -- -- 53
2019-03-30 01:00:00 5.9 7 Sur 11 Sur 0 -- -- 57
2019-03-30 00:00:00 6.4 8 Sur 13 Sur 0 -- -- 56
2019-03-29 23:00:00 7.3 8 Sur 12 Sur 0 -- -- 54
2019-03-29 22:00:00 9.1 9 Sur 15 Sur 0 -- -- 51
2019-03-29 21:00:00 10.2 8 Sur 20 Sur 0 -- -- 49
2019-03-29 20:00:00 11 0 Calma 6 Este 0 -- -- 49
2019-03-29 19:00:00 16.5 2 Oeste 7 Oeste 0 -- -- 36
2019-03-29 18:00:00 18.3 2 Norte 10 Norte 0 -- -- 29
2019-03-29 17:00:00 17.9 2 Norte 12 Este 0 -- -- 29
2019-03-29 16:00:00 18.1 4 Sudoeste 16 Sudoeste 0 -- -- 32
2019-03-29 15:00:00 17.4 6 Noroeste 20 Sudoeste 0 -- -- 29
2019-03-29 14:00:00 16.5 4 Norte 16 Oeste 0 -- -- 35
2019-03-29 13:00:00 15.5 8 Oeste 19 Oeste 0 -- -- 39
2019-03-29 12:00:00 13.9 7 Oeste 18 Oeste 0 -- -- 42
2019-03-29 11:00:00 12.7 10 Oeste 18 Oeste 0 -- -- 41
2019-03-29 10:00:00 9.3 3 Sudeste 9 Este 0 -- -- 63
2019-03-29 09:00:00 5.8 4 Este 6 Este 0 -- -- 70
2019-03-29 08:00:00 1.1 0 Calma 6 Sudeste 0 -- -- 83
2019-03-29 07:00:00 -0.2 3 Este 5 Este 0 -- -- 88
2019-03-29 06:00:00 0.3 2 Nordeste 5 Nordeste 0 -- -- 81
2019-03-29 05:00:00 2.5 5 Nordeste 9 Nordeste 0 -- -- 76
2019-03-29 04:00:00 1.2 2 Norte 5 Nordeste 0 -- -- 78
2019-03-29 03:00:00 2.9 0 Calma 4 Este 0 -- -- 72
2019-03-29 02:00:00 3.3 4 Este 6 Sudeste 0 -- -- 71
2019-03-29 01:00:00 5.9 3 Sur 10 Este 0 -- -- 65
2019-03-29 00:00:00 5.7 7 Este 12 Este 0 -- -- 64
2019-03-28 23:00:00 5.5 5 Este 11 Este 0 -- -- 63
2019-03-28 22:00:00 9.1 6 Este 10 Este 0 -- -- 51
2019-03-28 21:00:00 11.8 7 Nordeste 11 Nordeste 0 -- -- 48
2019-03-28 20:00:00 13.8 5 Nordeste 9 Nordeste 0 -- -- 44
2019-03-28 19:00:00 16.2 5 Nordeste 13 Nordeste 0 -- -- 36
2019-03-28 18:00:00 16.7 5 Nordeste 18 Sudeste 0 -- -- 33
2019-03-28 17:00:00 16.9 5 Sudeste 17 Este 0 -- -- 31
2019-03-28 16:00:00 16.6 5 Sudeste 19 Nordeste 0 -- -- 34
2019-03-28 15:00:00 16.1 5 Norte 14 Este 0 -- -- 34
2019-03-28 14:00:00 15 4 Norte 15 Norte 0 -- -- 36
2019-03-28 13:00:00 13.5 7 Este 17 Nordeste 0 -- -- 42
2019-03-28 12:00:00 11.6 10 Nordeste 17 Nordeste 0 -- -- 44
2019-03-28 11:00:00 9.6 8 Nordeste 18 Este 0 -- -- 47
2019-03-28 10:00:00 7.1 12 Este 32 Este 0 -- -- 48
2019-03-28 09:00:00 5.2 19 Este 30 Este 0 -- -- 50
2019-03-28 08:00:00 3 11 Este 18 Nordeste 0 -- -- 53
2019-03-28 07:00:00 2.6 10 Nordeste 23 Este 0 -- -- 52
2019-03-28 06:00:00 3.1 16 Este 27 Este 0 -- -- 50
2019-03-28 05:00:00 4 14 Este 23 Este 0 -- -- 49
2019-03-28 04:00:00 4.7 9 Este 19 Este 0 -- -- 50
2019-03-28 03:00:00 5.4 8 Este 22 Nordeste 0 -- -- 49
2019-03-28 02:00:00 6.3 13 Este 25 Nordeste 0 -- -- 47
2019-03-28 01:00:00 7.9 13 Este 26 Este 0 -- -- 41
2019-03-28 00:00:00 8.1 12 Este 18 Nordeste 0 -- -- 44
2019-03-27 23:00:00 9.6 12 Nordeste 22 Nordeste 0 -- -- 41
2019-03-27 22:00:00 10 8 Nordeste 18 Nordeste 0 -- -- 41
2019-03-27 21:00:00 11.8 8 Nordeste 14 Nordeste 0 -- -- 37
2019-03-27 20:00:00 13.8 7 Nordeste 14 Nordeste 0 -- -- 37
2019-03-27 19:00:00 16.5 11 Nordeste 24 Este 0 -- -- 31
2019-03-27 18:00:00 16.9 14 Nordeste 26 Nordeste 0 -- -- 31
2019-03-27 17:00:00 16.7 13 Nordeste 28 Nordeste 0 -- -- 33
2019-03-27 16:00:00 16.1 13 Nordeste 26 Nordeste 0 -- -- 35
2019-03-27 15:00:00 15.3 10 Nordeste 23 Nordeste 0 -- -- 40
2019-03-27 14:00:00 14.1 6 Nordeste 18 Nordeste 0 -- -- 42
2019-03-27 13:00:00 12.5 7 Nordeste 20 Norte 0 -- -- 48
2019-03-27 12:00:00 10.6 9 Nordeste 19 Nordeste 0 -- -- 48
2019-03-27 11:00:00 8.5 8 Nordeste 18 Nordeste 0 -- -- 51
2019-03-27 10:00:00 6.1 8 Nordeste 24 Este 0 -- -- 58
2019-03-27 09:00:00 3.6 12 Nordeste 18 Nordeste 0 -- -- 62
2019-03-27 08:00:00 -1.9 4 Este 6 Este 0 -- -- 78
2019-03-27 07:00:00 -2.1 0 Calma 5 Nordeste 0 -- -- 71
2019-03-27 06:00:00 -0.3 5 Nordeste 7 Nordeste 0 -- -- 66
2019-03-27 05:00:00 1.7 5 Nordeste 24 Este 0 -- -- 55
2019-03-27 04:00:00 3.7 18 Este 28 Este 0 -- -- 48
2019-03-27 03:00:00 4.9 18 Este 31 Este 0 -- -- 44
2019-03-27 02:00:00 6.3 20 Este 35 Este 0 -- -- 39
2019-03-27 01:00:00 6.9 19 Este 36 Este 0 -- -- 40
2019-03-27 00:00:00 7.7 15 Este 23 Sudeste 0 -- -- 40